createdAt,value
2022-10-12T00:02:38.081Z,7.03
2022-10-12T00:05:43.980Z,7.02
2022-10-12T00:08:51.625Z,7.04
2022-10-12T00:11:57.490Z,7.08
2022-10-12T00:15:03.740Z,7.11
2022-10-12T00:18:10.177Z,7.11
2022-10-12T00:21:18.252Z,7.07
2022-10-12T00:24:24.160Z,7.02
2022-10-12T00:27:30.299Z,6.99
2022-10-12T00:30:41.020Z,7.00
2022-10-12T00:33:48.204Z,6.96
2022-10-12T00:36:56.402Z,6.92
2022-10-12T00:40:02.553Z,6.89
2022-10-12T00:43:29.649Z,6.87
2022-10-12T00:46:42.662Z,6.86
2022-10-12T00:49:51.684Z,6.84
2022-10-12T00:53:03.296Z,6.85
2022-10-12T00:56:14.462Z,6.82
2022-10-12T00:59:23.787Z,6.77
2022-10-12T01:02:33.474Z,6.70
2022-10-12T01:05:42.755Z,6.71
2022-10-12T01:08:49.880Z,6.72
2022-10-12T01:11:57.857Z,6.73
2022-10-12T01:15:04.334Z,6.72
2022-10-12T01:18:16.063Z,6.67
2022-10-12T01:21:23.895Z,6.61
2022-10-12T01:24:52.026Z,6.59
2022-10-12T01:28:03.432Z,6.60
2022-10-12T01:31:15.818Z,6.65
2022-10-12T01:34:29.697Z,6.67
2022-10-12T01:37:47.910Z,6.69
2022-10-12T01:41:03.348Z,6.69
2022-10-12T01:44:09.498Z,6.66
2022-10-12T01:47:16.993Z,6.56
2022-10-12T01:50:28.241Z,6.44
2022-10-12T01:53:41.807Z,6.39
2022-10-12T01:56:55.539Z,6.39
2022-10-12T02:00:08.280Z,6.38
2022-10-12T02:03:22.184Z,6.37
2022-10-12T02:06:33.912Z,6.34
2022-10-12T02:09:41.346Z,6.31
2022-10-12T02:12:50.937Z,6.25
2022-10-12T02:16:00.247Z,6.20
2022-10-12T02:19:10.913Z,6.16
2022-10-12T02:22:18.992Z,6.12
2022-10-12T02:25:27.744Z,6.08
2022-10-12T02:28:37.514Z,6.09
2022-10-12T02:31:53.730Z,6.09
2022-10-12T02:35:02.942Z,6.08
2022-10-12T02:38:15.861Z,6.02
2022-10-12T02:41:28.062Z,5.97
2022-10-12T02:44:38.519Z,5.94
2022-10-12T02:47:47.261Z,5.92
2022-10-12T02:50:57.118Z,5.92
2022-10-12T02:54:04.389Z,5.93
2022-10-12T02:57:11.162Z,5.90
2022-10-12T03:00:19.517Z,5.87
2022-10-12T03:03:25.702Z,5.83
2022-10-12T03:06:31.746Z,5.83
2022-10-12T03:09:37.816Z,5.82
2022-10-12T03:12:49.106Z,5.81
2022-10-12T03:16:02.071Z,5.77
2022-10-12T03:19:08.275Z,5.73
2022-10-12T03:22:14.316Z,5.68
2022-10-12T03:25:20.456Z,5.60
2022-10-12T03:28:26.666Z,5.50
2022-10-12T03:31:31.323Z,5.39
2022-10-12T03:34:37.381Z,5.31
2022-10-12T03:37:43.535Z,5.23
2022-10-12T03:40:49.980Z,5.18
2022-10-12T03:43:56.015Z,5.15
2022-10-12T03:47:02.071Z,5.12
2022-10-12T03:50:09.554Z,5.11
2022-10-12T03:53:15.724Z,5.06
2022-10-12T03:56:21.759Z,5.00
2022-10-12T03:59:28.636Z,4.92
2022-10-12T04:02:34.704Z,4.86
2022-10-12T04:05:41.055Z,4.80
2022-10-12T04:08:49.929Z,4.74
2022-10-12T04:11:57.088Z,4.70
2022-10-12T04:15:03.448Z,4.70
2022-10-12T04:18:08.045Z,4.71
2022-10-12T04:21:16.479Z,4.72
2022-10-12T04:24:22.607Z,4.69
2022-10-12T04:27:28.800Z,4.57
2022-10-12T04:30:34.891Z,4.46
2022-10-12T04:33:41.161Z,4.42
2022-10-12T04:36:47.275Z,4.42
2022-10-12T04:39:53.380Z,4.37
2022-10-12T04:42:59.435Z,4.33
2022-10-12T04:46:05.645Z,4.33
2022-10-12T04:49:11.780Z,4.35
2022-10-12T04:52:17.750Z,4.36
2022-10-12T04:55:24.062Z,4.32
2022-10-12T04:58:29.006Z,4.26
2022-10-12T05:01:35.165Z,4.23
2022-10-12T05:04:41.365Z,4.17
2022-10-12T05:07:47.656Z,4.10
2022-10-12T05:10:52.281Z,4.05
2022-10-12T05:13:58.493Z,4.03
2022-10-12T05:17:04.674Z,3.99
2022-10-12T05:20:13.498Z,3.96
2022-10-12T05:23:19.571Z,3.97
2022-10-12T05:26:25.914Z,3.97
2022-10-12T05:29:30.400Z,3.95
2022-10-12T05:32:36.833Z,3.94
2022-10-12T05:35:47.481Z,3.94
2022-10-12T05:38:55.067Z,3.95
2022-10-12T05:42:01.179Z,3.97
2022-10-12T05:45:08.947Z,4.00
2022-10-12T05:48:15.311Z,4.04
2022-10-12T05:51:19.886Z,4.11
2022-10-12T05:54:26.153Z,4.15
2022-10-12T05:57:32.420Z,4.19
2022-10-12T06:00:39.051Z,4.18
2022-10-12T06:03:45.202Z,4.22
2022-10-12T06:06:51.365Z,4.27
2022-10-12T06:09:57.461Z,4.30
2022-10-12T06:13:03.850Z,4.33
2022-10-12T06:16:10.600Z,4.38
2022-10-12T06:19:16.780Z,4.45
2022-10-12T06:22:22.823Z,4.55
2022-10-12T06:25:29.224Z,4.64
2022-10-12T06:28:35.573Z,4.70
2022-10-12T06:31:40.219Z,4.76
2022-10-12T06:34:46.959Z,4.78
2022-10-12T06:37:54.016Z,4.81
2022-10-12T06:41:00.720Z,4.86
2022-10-12T06:44:07.136Z,4.91
2022-10-12T06:47:13.315Z,4.97
2022-10-12T06:50:19.642Z,5.01
2022-10-12T06:53:25.684Z,5.09
2022-10-12T06:56:32.263Z,5.20
2022-10-12T06:59:38.384Z,5.31
2022-10-12T07:02:44.928Z,5.47
2022-10-12T07:05:51.020Z,5.59
2022-10-12T07:08:58.050Z,5.70
2022-10-12T07:12:04.193Z,5.76
2022-10-12T07:15:11.928Z,5.80
2022-10-12T07:18:17.964Z,5.86
2022-10-12T07:21:24.062Z,5.92
2022-10-12T07:24:36.529Z,5.95
2022-10-12T07:27:42.559Z,5.99
2022-10-12T07:30:48.870Z,6.05
2022-10-12T07:33:53.352Z,6.09
2022-10-12T07:37:00.130Z,6.13
2022-10-12T07:40:07.495Z,6.19
2022-10-12T07:43:16.063Z,6.28
2022-10-12T07:46:22.691Z,6.40
2022-10-12T07:49:28.953Z,6.50
2022-10-12T07:52:35.808Z,6.61
2022-10-12T07:55:42.052Z,6.71
2022-10-12T07:58:51.357Z,6.80
2022-10-12T08:01:57.570Z,6.91
2022-10-12T08:05:03.764Z,7.01
2022-10-12T08:08:10.013Z,7.14
2022-10-12T08:11:14.782Z,7.23
2022-10-12T08:14:21.011Z,7.35
2022-10-12T08:17:27.538Z,7.46
2022-10-12T08:20:33.783Z,7.59
2022-10-12T08:23:40.239Z,7.76
2022-10-12T08:26:46.318Z,7.95
2022-10-12T08:29:52.450Z,8.11
2022-10-12T08:32:58.597Z,8.26
2022-10-12T08:36:06.691Z,8.43
2022-10-12T08:39:12.840Z,8.58
2022-10-12T08:42:35.367Z,8.72
2022-10-12T08:45:49.192Z,8.87
2022-10-12T08:49:02.977Z,8.98
2022-10-12T08:52:22.818Z,9.12
2022-10-12T08:55:38.094Z,9.31
2022-10-12T08:58:45.636Z,9.50
2022-10-12T09:02:04.228Z,9.68
2022-10-12T09:05:16.275Z,9.91
2022-10-12T09:08:33.591Z,10.07
2022-10-12T09:11:53.167Z,10.22
2022-10-12T09:15:03.668Z,10.37
2022-10-12T09:18:20.330Z,10.55
2022-10-12T09:21:28.540Z,10.73
2022-10-12T09:24:39.398Z,10.90
2022-10-12T09:27:48.286Z,11.05
2022-10-12T09:31:17.984Z,11.16
2022-10-12T09:34:24.843Z,11.32
2022-10-12T09:37:33.704Z,11.46
2022-10-12T09:40:40.478Z,11.59
2022-10-12T09:43:46.905Z,11.67
2022-10-12T09:46:57.516Z,11.69
2022-10-12T09:50:05.750Z,11.72
2022-10-12T09:53:28.857Z,11.75
2022-10-12T09:56:41.800Z,11.81
2022-10-12T09:59:48.486Z,11.83
2022-10-12T10:02:55.712Z,11.82
2022-10-12T10:06:07.504Z,11.83
2022-10-12T10:09:33.587Z,11.86
2022-10-12T10:12:44.231Z,11.90
2022-10-12T10:15:52.086Z,11.92
2022-10-12T10:19:03.148Z,11.92
2022-10-12T10:22:09.379Z,11.99
2022-10-12T10:25:21.071Z,12.07
2022-10-12T10:28:31.841Z,12.11
2022-10-12T10:31:38.078Z,12.20
2022-10-12T10:34:43.820Z,12.27
2022-10-12T10:37:50.679Z,12.35
2022-10-12T10:40:58.685Z,12.48
2022-10-12T10:44:06.348Z,12.59
2022-10-12T10:47:14.659Z,12.71
2022-10-12T10:50:31.897Z,12.82
2022-10-12T10:53:49.832Z,12.95
2022-10-12T10:57:03.383Z,13.08
2022-10-12T11:03:52.386Z,13.34
2022-10-12T11:07:03.027Z,13.46
2022-10-12T11:10:22.015Z,13.59
2022-10-12T11:13:34.005Z,13.66
2022-10-12T11:16:45.097Z,13.67
2022-10-12T11:19:57.064Z,13.78
2022-10-12T11:23:10.810Z,13.89
2022-10-12T11:26:24.154Z,13.93
2022-10-12T11:29:30.823Z,13.89
2022-10-12T11:32:41.890Z,13.92
2022-10-12T11:35:49.015Z,14.02
2022-10-12T11:39:05.895Z,14.05
2022-10-12T11:42:22.147Z,14.10
2022-10-12T11:45:31.838Z,14.19
2022-10-12T11:48:43.431Z,14.31
2022-10-12T11:51:52.627Z,14.29
2022-10-12T11:55:09.508Z,14.27
2022-10-12T11:58:31.553Z,14.35
2022-10-12T12:02:04.791Z,14.42
2022-10-12T12:05:16.685Z,14.51
2022-10-12T12:09:19.212Z,14.62
2022-10-12T12:12:27.696Z,14.68
2022-10-12T12:15:34.184Z,14.67
2022-10-12T12:19:13.327Z,14.61
2022-10-12T12:22:49.156Z,14.58
2022-10-12T12:26:16.803Z,14.64
2022-10-12T12:29:30.033Z,14.69
2022-10-12T12:32:49.557Z,14.64
2022-10-12T12:35:58.552Z,14.57
2022-10-12T12:39:06.090Z,14.59
2022-10-12T12:42:12.761Z,14.60
2022-10-12T12:45:54.476Z,14.60
2022-10-12T12:49:26.839Z,14.55
2022-10-12T12:52:35.361Z,14.56
2022-10-12T12:56:04.561Z,14.54
2022-10-12T12:59:35.108Z,14.55
2022-10-12T13:03:04.650Z,14.58
2022-10-12T13:06:40.263Z,14.54
2022-10-12T13:10:08.951Z,14.51
2022-10-12T13:13:44.308Z,14.54
2022-10-12T13:17:31.126Z,14.54
2022-10-12T13:20:28.190Z,14.51
2022-10-12T13:23:35.053Z,14.48
2022-10-12T13:26:42.324Z,14.46
2022-10-12T13:29:55.014Z,14.46
2022-10-12T13:33:07.778Z,14.40
2022-10-12T13:36:19.511Z,14.33
2022-10-12T13:39:25.739Z,14.31
2022-10-12T13:42:36.038Z,14.29
2022-10-12T13:45:48.198Z,14.25
2022-10-12T13:48:59.795Z,14.21
2022-10-12T13:52:31.821Z,14.19
2022-10-12T13:55:38.716Z,14.18
2022-10-12T13:58:45.113Z,14.17
2022-10-12T14:02:00.902Z,14.12
2022-10-12T14:05:08.434Z,14.10
2022-10-12T14:08:20.729Z,14.08
2022-10-12T14:11:27.915Z,14.01
2022-10-12T14:14:37.722Z,13.97
2022-10-12T14:17:47.798Z,13.91
2022-10-12T14:21:05.735Z,13.88
2022-10-12T14:24:12.741Z,13.86
2022-10-12T14:27:26.116Z,13.81
2022-10-12T14:30:34.435Z,13.74
2022-10-12T14:33:40.582Z,13.70
2022-10-12T14:36:45.259Z,13.65
2022-10-12T14:39:59.519Z,13.60
2022-10-12T14:43:09.582Z,13.54
2022-10-12T14:46:15.716Z,13.47
2022-10-12T14:49:22.306Z,13.39
2022-10-12T14:52:35.160Z,13.32
2022-10-12T14:55:42.700Z,13.27
2022-10-12T14:58:49.607Z,13.23
2022-10-12T15:01:55.841Z,13.16
2022-10-12T15:05:02.537Z,13.08
2022-10-12T15:08:09.387Z,13.00
2022-10-12T15:11:16.963Z,12.91
2022-10-12T15:14:23.044Z,12.82
2022-10-12T15:17:27.535Z,12.74
2022-10-12T15:20:34.251Z,12.67
2022-10-12T15:23:40.498Z,12.59
2022-10-12T15:26:46.833Z,12.51
2022-10-12T15:29:53.393Z,12.42
2022-10-12T15:32:59.642Z,12.33
2022-10-12T15:36:05.754Z,12.25
2022-10-12T15:39:10.334Z,12.14
2022-10-12T15:42:16.418Z,12.04
2022-10-12T15:45:22.691Z,11.91
2022-10-12T15:48:29.189Z,11.76
2022-10-12T15:51:39.202Z,11.64
2022-10-12T15:54:48.771Z,11.50
2022-10-12T15:57:56.215Z,11.36
2022-10-12T16:01:02.386Z,11.23
2022-10-12T16:04:08.055Z,11.09
2022-10-12T16:07:15.876Z,10.97
2022-10-12T16:10:24.492Z,10.83
2022-10-12T16:13:30.574Z,10.69
2022-10-12T16:16:36.706Z,10.56
2022-10-12T16:19:42.856Z,10.44
2022-10-12T16:22:51.147Z,10.33
2022-10-12T16:25:57.655Z,10.23
2022-10-12T16:29:03.803Z,10.12
2022-10-12T16:32:08.257Z,10.03
2022-10-12T16:35:15.328Z,9.93
2022-10-12T16:38:21.646Z,9.82
2022-10-12T16:41:30.412Z,9.72
2022-10-12T16:44:40.073Z,9.64
2022-10-12T16:47:44.693Z,9.56
2022-10-12T16:50:50.879Z,9.44
2022-10-12T16:53:55.386Z,9.31
2022-10-12T16:57:01.923Z,9.18
2022-10-12T17:00:10.681Z,9.09
2022-10-12T17:03:16.958Z,8.99
2022-10-12T17:06:23.108Z,8.88
2022-10-12T17:09:27.955Z,8.78
2022-10-12T17:12:35.462Z,8.70
2022-10-12T17:15:44.071Z,8.61
2022-10-12T17:18:50.206Z,8.53
2022-10-12T17:21:59.665Z,8.43
2022-10-12T17:25:06.385Z,8.32
2022-10-12T17:28:12.467Z,8.25
2022-10-12T17:31:18.886Z,8.18
2022-10-12T17:34:26.676Z,8.10
2022-10-12T17:37:32.837Z,8.01
2022-10-12T17:40:39.825Z,7.92
2022-10-12T17:43:46.475Z,7.83
2022-10-12T17:46:52.680Z,7.78
2022-10-12T17:49:57.228Z,7.77
2022-10-12T17:53:03.317Z,7.69
2022-10-12T17:56:14.043Z,7.63
2022-10-12T17:59:21.215Z,7.55
2022-10-12T18:02:27.577Z,7.46
2022-10-12T18:05:34.867Z,7.38
2022-10-12T18:08:41.255Z,7.30
2022-10-12T18:11:47.474Z,7.23
2022-10-12T18:14:51.925Z,7.18
2022-10-12T18:17:58.088Z,7.13
2022-10-12T18:21:08.246Z,7.06
2022-10-12T18:24:17.662Z,7.01
2022-10-12T18:27:23.926Z,7.00
2022-10-12T18:30:30.054Z,6.96
2022-10-12T18:33:36.721Z,6.87
2022-10-12T18:36:42.999Z,6.77
2022-10-12T18:39:47.503Z,6.72
2022-10-12T18:42:53.879Z,6.68
2022-10-12T18:45:59.914Z,6.60
2022-10-12T18:49:08.534Z,6.52
2022-10-12T18:52:14.557Z,6.46
2022-10-12T18:55:20.861Z,6.39
2022-10-12T18:58:25.398Z,6.32
2022-10-12T19:01:33.187Z,6.27
2022-10-12T19:04:39.349Z,6.20
2022-10-12T19:07:45.467Z,6.16
2022-10-12T19:10:51.566Z,6.15
2022-10-12T19:14:00.211Z,6.10
2022-10-12T19:17:06.322Z,6.03
2022-10-12T19:20:13.792Z,5.97
2022-10-12T19:23:19.901Z,5.94
2022-10-12T19:26:28.545Z,5.92
2022-10-12T19:29:34.678Z,5.92
2022-10-12T19:32:41.484Z,5.85
2022-10-12T19:35:47.619Z,5.81
2022-10-12T19:38:55.972Z,5.74
2022-10-12T19:42:02.117Z,5.65
2022-10-12T19:45:09.742Z,5.58
2022-10-12T19:48:15.971Z,5.53
2022-10-12T19:51:24.001Z,5.45
2022-10-12T19:54:34.076Z,5.40
2022-10-12T19:57:43.202Z,5.34
2022-10-12T20:00:49.489Z,5.28
2022-10-12T20:03:53.998Z,5.23
2022-10-12T20:07:00.142Z,5.17
2022-10-12T20:10:07.465Z,5.12
2022-10-12T20:13:13.594Z,5.08
2022-10-12T20:16:21.194Z,5.04
2022-10-12T20:19:27.503Z,5.00
2022-10-12T20:22:32.005Z,4.96
2022-10-12T20:25:43.177Z,4.88
2022-10-12T20:28:50.190Z,4.84
2022-10-12T20:31:56.391Z,4.85
2022-10-12T20:35:02.444Z,4.84
2022-10-12T20:38:08.507Z,4.81
2022-10-12T20:41:17.292Z,4.76
2022-10-12T20:44:23.607Z,4.65
2022-10-12T20:47:28.798Z,4.56
2022-10-12T20:50:35.364Z,4.47
2022-10-12T20:53:42.171Z,4.37
2022-10-12T20:56:52.086Z,4.32
2022-10-12T20:59:58.306Z,4.28
2022-10-12T21:03:04.461Z,4.25
2022-10-12T21:06:12.913Z,4.23
2022-10-12T21:09:18.895Z,4.25
2022-10-12T21:12:25.095Z,4.23
2022-10-12T21:15:31.311Z,4.20
2022-10-12T21:18:38.440Z,4.18
2022-10-12T21:21:46.720Z,4.20
2022-10-12T21:24:53.379Z,4.23
2022-10-12T21:27:59.628Z,4.20
2022-10-12T21:31:05.936Z,4.15
2022-10-12T21:34:11.411Z,4.13
2022-10-12T21:37:17.638Z,4.10
2022-10-12T21:40:24.475Z,4.07
2022-10-12T21:43:30.586Z,4.02
2022-10-12T21:46:37.584Z,3.92
2022-10-12T21:49:43.698Z,3.87
2022-10-12T21:52:50.230Z,3.78
2022-10-12T21:55:56.676Z,3.71
2022-10-12T21:59:01.959Z,3.64
2022-10-12T22:02:08.044Z,3.58
2022-10-12T22:05:14.108Z,3.54
2022-10-12T22:08:20.229Z,3.51
2022-10-12T22:11:27.379Z,3.50
2022-10-12T22:14:33.611Z,3.49
2022-10-12T22:17:39.762Z,3.45
2022-10-12T22:20:45.776Z,3.39
2022-10-12T22:23:51.896Z,3.33
2022-10-12T22:26:58.001Z,3.30
2022-10-12T22:30:04.610Z,3.32
2022-10-12T22:33:10.729Z,3.28
2022-10-12T22:36:18.019Z,3.23
2022-10-12T22:39:24.235Z,3.18
2022-10-12T22:42:30.380Z,3.16
2022-10-12T22:45:36.461Z,3.12
2022-10-12T22:48:42.984Z,3.13
2022-10-12T22:51:49.208Z,3.13
2022-10-12T22:54:55.212Z,3.10
2022-10-12T22:58:01.328Z,3.02
2022-10-12T23:01:09.165Z,2.99
2022-10-12T23:04:15.506Z,2.97
2022-10-12T23:07:19.986Z,3.00
2022-10-12T23:10:26.655Z,2.98
2022-10-12T23:13:32.847Z,2.93
2022-10-12T23:16:38.923Z,2.89
2022-10-12T23:19:45.082Z,2.84
2022-10-12T23:22:51.164Z,2.79
2022-10-12T23:26:03.499Z,2.75
2022-10-12T23:29:09.642Z,2.73
2022-10-12T23:32:16.683Z,2.75
2022-10-12T23:35:22.995Z,2.75
2022-10-12T23:38:31.768Z,2.70
2022-10-12T23:41:37.844Z,2.65
2022-10-12T23:44:43.969Z,2.65
2022-10-12T23:47:50.071Z,2.60
2022-10-12T23:50:56.703Z,2.53
2022-10-12T23:54:03.142Z,2.47
2022-10-12T23:57:22.548Z,2.42
